hwlogo.jpg (8581 bytes)
Home Your Weather Products Services Weather On Your Site Contact
HW Version Logo
Weather Info
Your Weather (Options)
Canadian Weather
International Weather
Enter your " Place, State", US Zip Code or ICAO:  
Forecast Information Radar Information
Churchill Falls, Newfoundland, Canada  Lat: 53.57N, Lon: 64.08W
ICAO Used: CZUM
Current Conditions
Updated: 1:00 AM AST MON FEB 19 2018
Sun & Moon Information
Clear
Clear
Temp: -23°C
Humidity: 69%
Wind Speed: NW 5 MPH
Barometer: 1019 mb
Dewpoint: -27°C
Heat Index: -23°C
Wind Chill: -29°C
Civil Twilight: 6:53 AM AST Moon Phase:
Waxing Crescent Moon
Sunrise: 7:30 AM AST
Sunset: 5:30 PM AST
Civil Twilight: 6:06 PM AST
Forecast for Churchill Falls, NF:
(Forecast based on TAF for )
1042 PM AST SUN FEB 18 2018
  
OVERNIGHT MORNING
Partly
Cloudy
Partly
Cloudy
ZoneCast:
Dated: 1042 PM AST SUN FEB 18 2018
Overnight...Clear winds variable in direction at 3 mph. Turning partly cloudy with winds from the westnorthwest at 9 mph.

Morning...Partly cloudy with winds from the westnorthwest at 9 mph. Turning mostly cloudy winds variable in direction at 3 mph.

Original Encoded TAF:
Dated: 1042 PM AST SUN FEB 18 2018
2018/02/19 02:42
TAF CZUM 190141Z 1902/1914 VRB03KT WS005/29025KT P6SM SKC 
     FM190600 29008KT P6SM SCT150 
     FM191200 VRB03KT P6SM FEW050 BKN090 
      RMK FCST BASED ON AUTO OBS. NXT FCST BY 190800Z